Time;durP1;ratioP1;P1;durP2;ratioP2;P2;SDS_P1;SDS_P2;PMS_P1;PMS_P2;Temp;Humidity;BMP_temperature;BMP_pressure;BME280_temperature;BME280_humidity;BME280_pressure;Samples;Min_cycle;Max_cycle;Signal;HPM_P1;HPM_P2
2022/04/30 00:02:09;;;;;;;10.90;5.97;;;;;;;-142.75;100.00;79173.47;5050489;28;20126;-66
2022/04/30 00:04:39;;;;;;;11.10;5.77;;;;;;;-142.75;100.00;79157.72;5050829;28;20390;-66
2022/04/30 00:07:05;;;;;;;11.07;5.67;;;;;;;-142.75;100.00;79163.63;5050789;28;20025;-66
2022/04/30 00:09:31;;;;;;;10.00;5.32;;;;;;;-142.75;100.00;79161.66;5050587;28;20020;-66
2022/04/30 00:11:57;;;;;;;10.48;5.18;;;;;;;-142.75;100.00;79161.66;5049056;28;20036;-66
2022/04/30 00:14:23;;;;;;;12.48;6.35;;;;;;;-142.75;100.00;79153.75;5050458;28;20052;-66
2022/04/30 00:16:48;;;;;;;;;;;;;;;-142.75;100.00;79155.72;5050880;28;20711;-66
2022/04/30 00:19:14;;;;;;;10.47;6.20;;;;;;;-142.75;100.00;79153.75;5050925;28;19912;-66
2022/04/30 00:21:40;;;;;;;;;;;;;;;-142.75;100.00;79153.75;5065711;28;20426;-66
2022/04/30 00:24:05;;;;;;;11.10;5.63;;;;;;;-142.75;100.00;79157.72;5070065;28;20030;-66
2022/04/30 00:26:31;;;;;;;12.18;5.97;;;;;;;-142.75;100.00;79165.59;5069894;28;20039;-67
2022/04/30 00:28:56;;;;;;;12.20;5.90;;;;;;;-142.75;100.00;79161.66;5070216;28;20025;-66
2022/04/30 00:31:21;;;;;;;9.38;5.68;;;;;;;-142.75;100.00;79159.69;5069666;28;20046;-66
2022/04/30 00:33:48;;;;;;;8.57;4.93;;;;;;;-142.75;100.00;79157.72;5070080;28;20025;-66
2022/04/30 00:36:14;;;;;;;10.47;5.20;;;;;;;-142.75;100.00;79161.66;5058465;28;20560;-66
2022/04/30 00:38:41;;;;;;;12.00;5.40;;;;;;;-142.75;100.00;79157.72;5050114;28;20024;-67
2022/04/30 00:41:08;;;;;;;11.10;5.60;;;;;;;-142.75;100.00;79153.75;5049447;28;20033;-66
2022/04/30 00:43:47;;;;;;;10.77;5.43;;;;;;;-142.75;100.00;79145.88;5048771;28;20025;-66
2022/04/30 00:46:16;;;;;;;10.17;5.47;;;;;;;-142.75;100.00;79138.00;5050011;28;20025;-66
2022/04/30 00:48:42;;;;;;;10.93;5.40;;;;;;;-142.75;100.00;79134.06;5050412;28;20386;-66
2022/04/30 00:51:12;;;;;;;10.80;5.78;;;;;;;-142.75;100.00;79130.13;5050108;28;20052;-67
2022/04/30 00:53:39;;;;;;;13.13;5.90;;;;;;;-142.75;100.00;79128.16;5049854;28;20037;-67
2022/04/30 00:56:08;;;;;;;11.53;6.00;;;;;;;-142.75;100.00;79124.22;5049731;28;20145;-66
2022/04/30 00:58:35;;;;;;;11.93;5.20;;;;;;;-142.75;100.00;79106.50;5048603;28;20444;-67
2022/04/30 01:01:02;;;;;;;13.53;6.27;;;;;;;-142.75;100.00;79112.41;5049454;28;20028;-66
2022/04/30 01:03:27;;;;;;;11.13;5.93;;;;;;;-142.75;100.00;79106.50;5049781;28;20086;-66
2022/04/30 01:05:54;;;;;;;13.88;5.10;;;;;;;-142.75;100.00;79106.50;5048536;28;20036;-66
2022/04/30 01:08:20;;;;;;;8.80;5.07;;;;;;;-142.75;100.00;79106.50;5049504;28;20051;-66
2022/04/30 01:10:46;;;;;;;9.60;5.78;;;;;;;-142.75;100.00;79104.53;5049776;28;20025;-66
2022/04/30 01:13:13;;;;;;;;;;;;;;;-142.75;100.00;79098.63;5050039;28;20029;-66
2022/04/30 01:15:39;;;;;;;10.98;5.60;;;;;;;-142.75;100.00;79090.72;5049776;28;19967;-67
2022/04/30 01:18:07;;;;;;;11.93;5.40;;;;;;;-142.75;100.00;79094.69;5050043;28;20028;-66
2022/04/30 01:20:34;;;;;;;10.73;5.27;;;;;;;-142.75;100.00;79086.78;5049841;28;20032;-66
2022/04/30 01:23:04;;;;;;;12.27;5.73;;;;;;;-142.75;100.00;79086.78;5048289;28;20021;-66
2022/04/30 01:25:30;;;;;;;10.87;5.93;;;;;;;-142.75;100.00;79088.75;5068376;28;20051;-66
2022/04/30 01:27:59;;;;;;;10.00;5.33;;;;;;;-142.75;100.00;79088.75;5069476;28;20389;-66
2022/04/30 01:30:24;;;;;;;13.47;5.57;;;;;;;-142.75;100.00;79086.78;5069168;28;20552;-66
2022/04/30 01:38:20;;;;;;;11.57;5.57;;;;;;;-142.75;100.00;79096.66;5069793;28;20116;-66
2022/04/30 01:40:48;;;;;;;11.07;5.80;;;;;;;-142.75;100.00;79098.63;5068985;28;20056;-66
2022/04/30 01:43:15;;;;;;;9.87;5.53;;;;;;;-142.75;100.00;79100.59;5069495;28;20132;-66
2022/04/30 01:45:41;;;;;;;10.40;5.67;;;;;;;-142.75;100.00;79098.63;5068338;28;20036;-66
2022/04/30 01:48:12;;;;;;;11.95;4.88;;;;;;;-142.75;100.00;79104.53;5068633;28;20062;-66
2022/04/30 01:50:38;;;;;;;8.87;4.77;;;;;;;-142.75;100.00;79104.53;5069798;28;20058;-66
2022/04/30 01:53:03;;;;;;;12.90;4.75;;;;;;;-142.75;100.00;79098.63;5069305;28;20448;-66
2022/04/30 01:55:28;;;;;;;12.30;4.78;;;;;;;-142.75;100.00;79102.56;5069606;28;20536;-66
2022/04/30 01:57:54;;;;;;;11.32;4.65;;;;;;;-142.75;100.00;79110.44;5068170;28;20509;-66
2022/04/30 02:00:20;;;;;;;12.52;5.53;;;;;;;-142.75;100.00;79102.56;5068989;28;20082;-66
2022/04/30 02:02:49;;;;;;;9.30;4.87;;;;;;;-142.75;100.00;79100.59;5068888;28;20469;-67
2022/04/30 02:05:16;;;;;;;9.43;5.47;;;;;;;-142.75;100.00;79110.44;5069467;28;20385;-66
2022/04/30 02:07:49;;;;;;;13.20;5.53;;;;;;;-142.75;100.00;79096.66;5069285;28;20029;-66
2022/04/30 02:10:15;;;;;;;10.83;5.80;;;;;;;-142.75;100.00;79102.56;5069387;28;20020;-67
2022/04/30 02:12:41;;;;;;;9.10;5.20;;;;;;;-142.75;100.00;79090.72;5072139;28;20401;-66
2022/04/30 02:15:08;;;;;;;;;;;;;;;-142.75;100.00;79090.72;5073339;28;20401;-66
2022/04/30 02:17:38;;;;;;;9.60;4.70;;;;;;;-142.75;100.00;79088.75;5072680;28;20408;-66
2022/04/30 02:22:51;;;;;;;9.73;5.45;;;;;;;-142.75;100.00;79078.91;5073262;28;20034;-65
2022/04/30 02:25:17;;;;;;;9.23;5.13;;;;;;;-142.75;100.00;79071.03;5073150;28;20098;-65
2022/04/30 02:27:50;;;;;;;9.10;4.77;;;;;;;-142.75;100.00;79078.91;5072669;28;20365;-65
2022/04/30 02:30:18;;;;;;;11.83;5.50;;;;;;;-142.75;100.00;79090.72;5072808;28;20021;-65
2022/04/30 02:32:49;;;;;;;9.00;4.87;;;;;;;-142.75;100.00;79100.59;5071028;28;20025;-65
2022/04/30 02:35:16;;;;;;;8.27;4.80;;;;;;;-142.75;100.00;79106.50;5072572;28;20032;-65
2022/04/30 02:37:45;;;;;;;9.47;5.30;;;;;;;-142.75;100.00;79108.47;5072604;28;20031;-65
2022/04/30 02:40:13;;;;;;;8.10;4.63;;;;;;;-142.75;100.00;79106.50;5072754;28;20033;-65
2022/04/30 02:42:39;;;;;;;9.67;4.90;;;;;;;-142.75;100.00;79118.31;5072154;28;20112;-65
2022/04/30 02:45:06;;;;;;;11.05;5.18;;;;;;;-142.75;100.00;79116.34;5072417;28;20055;-65
2022/04/30 02:47:31;;;;;;;9.63;5.00;;;;;;;-142.75;100.00;79118.31;5072347;28;20082;-66
2022/04/30 02:49:57;;;;;;;7.60;4.82;;;;;;;-142.75;100.00;79102.56;5072888;28;20032;-65
2022/04/30 02:52:22;;;;;;;9.23;4.75;;;;;;;-142.75;100.00;79102.56;5072154;28;20028;-65
2022/04/30 02:54:47;;;;;;;13.10;5.70;;;;;;;-142.75;100.00;79106.50;5072001;28;20097;-65
2022/04/30 02:57:13;;;;;;;8.00;5.32;;;;;;;-142.75;100.00;79110.44;5072141;28;20514;-65
2022/04/30 02:59:53;;;;;;;9.73;5.45;;;;;;;-142.75;100.00;79116.34;5072111;28;20031;-65
2022/04/30 03:02:18;;;;;;;8.03;4.77;;;;;;;-142.75;100.00;79108.47;5070563;28;20138;-65
2022/04/30 03:04:44;;;;;;;10.98;5.10;;;;;;;-142.75;100.00;79106.50;5071998;28;20498;-65
2022/04/30 03:07:11;;;;;;;11.83;5.13;;;;;;;-142.75;100.00;79096.66;5072037;28;20055;-65
2022/04/30 03:09:39;;;;;;;8.87;5.57;;;;;;;-142.75;100.00;79088.75;5071851;28;20373;-66
2022/04/30 03:12:05;;;;;;;13.67;5.50;;;;;;;-142.75;100.00;79096.66;5071440;28;20032;-65
2022/04/30 03:14:30;;;;;;;;;;;;;;;-142.75;100.00;79084.81;5071956;28;20016;-65
2022/04/30 03:22:23;;;;;;;9.77;4.97;;;;;;;-142.75;100.00;79071.03;5070451;28;20227;-65
2022/04/30 03:24:48;;;;;;;12.18;5.68;;;;;;;-142.75;100.00;79073.00;5071650;28;20047;-65
2022/04/30 03:27:17;;;;;;;10.50;5.05;;;;;;;-142.75;100.00;79063.16;5071615;28;20020;-68
2022/04/30 03:29:42;;;;;;;7.10;4.63;;;;;;;-142.75;100.00;79067.09;5071352;28;20028;-67
2022/04/30 03:32:08;;;;;;;8.25;4.75;;;;;;;-142.75;100.00;79057.25;5075904;22;20041;-67
2022/04/30 03:34:34;;;;;;;8.82;5.18;;;;;;;-142.75;100.00;79055.28;5028501;28;20040;-68
2022/04/30 03:36:59;;;;;;;7.30;4.57;;;;;;;-142.75;100.00;79043.47;5029027;28;20036;-68
2022/04/30 03:39:25;;;;;;;7.43;4.57;;;;;;;-142.75;100.00;79047.41;5030686;28;20029;-67
2022/04/30 03:41:50;;;;;;;11.13;5.20;;;;;;;-142.75;100.00;79039.53;5030302;28;20021;-68
2022/04/30 03:44:16;;;;;;;8.05;4.22;;;;;;;-142.75;100.00;79033.63;5030715;28;20268;-69
2022/04/30 03:46:42;;;;;;;7.93;4.82;;;;;;;-142.75;100.00;79021.78;5018276;28;20048;-67
2022/04/30 03:49:07;;;;;;;8.15;4.20;;;;;;;-142.75;100.00;79017.84;5027649;28;20022;-68
2022/04/30 03:51:32;;;;;;;8.55;4.65;;;;;;;-142.75;100.00;79009.97;5011082;28;20084;-67
2022/04/30 03:53:58;;;;;;;7.95;4.13;;;;;;;-142.75;100.00;78992.25;5028757;28;20029;-68
2022/04/30 03:56:24;;;;;;;11.50;5.07;;;;;;;-142.75;100.00;78992.25;5010650;28;20026;-67
2022/04/30 03:58:49;;;;;;;6.67;3.57;;;;;;;-142.75;100.00;78984.38;5012142;28;20037;-67
2022/04/30 04:01:18;;;;;;;6.45;4.20;;;;;;;-142.75;100.00;78984.38;5012840;28;20049;-67
2022/04/30 04:03:44;;;;;;;8.30;4.17;;;;;;;-142.75;100.00;78984.38;5017937;28;20032;-68
2022/04/30 04:06:09;;;;;;;9.07;3.67;;;;;;;-142.75;100.00;78982.41;5030193;28;20021;-67
2022/04/30 04:08:35;;;;;;;8.60;3.65;;;;;;;-142.75;100.00;78988.31;5026477;28;20037;-68
2022/04/30 04:11:00;;;;;;;;;;;;;;;-142.75;100.00;78980.44;5028873;28;20028;-67
2022/04/30 04:18:55;;;;;;;6.17;4.17;;;;;;;-142.75;100.00;78968.63;5030415;28;20059;-68
2022/04/30 04:21:21;;;;;;;7.30;4.53;;;;;;;-142.75;100.00;78974.53;5030508;28;20022;-67
2022/04/30 04:26:31;;;;;;;8.63;3.87;;;;;;;-142.75;100.00;78966.66;5020035;28;20046;-67
2022/04/30 04:28:56;;;;;;;7.97;4.05;;;;;;;-142.75;100.00;78964.69;5023692;28;20478;-67
2022/04/30 04:31:22;;;;;;;6.03;4.30;;;;;;;-142.75;100.00;78962.69;5029646;28;20021;-68
2022/04/30 04:33:48;;;;;;;5.83;3.60;;;;;;;-142.75;100.00;78948.91;5029283;28;20290;-68
2022/04/30 04:36:13;;;;;;;6.75;4.30;;;;;;;-142.75;100.00;78944.97;5028506;28;20021;-68
2022/04/30 04:38:39;;;;;;;6.68;3.97;;;;;;;-142.75;100.00;78941.03;5028507;28;20030;-66
2022/04/30 04:41:04;;;;;;;9.02;4.18;;;;;;;-142.75;100.00;78927.25;5018703;28;20517;-67
2022/04/30 04:43:29;;;;;;;6.57;3.63;;;;;;;-142.75;100.00;78919.38;5015741;28;20121;-66
2022/04/30 04:45:55;;;;;;;8.70;3.88;;;;;;;-142.75;100.00;78911.50;5029721;28;20334;-68
2022/04/30 04:48:20;;;;;;;5.05;3.22;;;;;;;-142.75;100.00;78913.47;5029659;28;20051;-69
2022/04/30 04:50:46;;;;;;;5.55;3.55;;;;;;;-142.75;100.00;78905.59;5029829;28;20045;-68
2022/04/30 04:53:12;;;;;;;;;;;;;;;-142.75;100.00;78905.59;5029905;28;20488;-67
2022/04/30 04:55:37;;;;;;;8.27;4.07;;;;;;;-142.75;100.00;78899.69;5016256;28;20009;-66
2022/04/30 04:58:03;;;;;;;7.55;4.28;;;;;;;-142.75;100.00;78897.72;5014213;28;20033;-68
2022/04/30 05:00:28;;;;;;;6.90;4.07;;;;;;;-142.75;100.00;78891.78;5027672;28;20029;-66
2022/04/30 05:02:54;;;;;;;7.45;4.30;;;;;;;-142.75;100.00;78885.88;5028302;28;20045;-68
2022/04/30 05:05:19;;;;;;;8.82;4.13;;;;;;;-142.75;100.00;78893.78;5025725;28;20113;-69
2022/04/30 05:07:44;;;;;;;8.50;3.85;;;;;;;-142.75;100.00;78889.81;5016778;28;20656;-68
2022/04/30 05:10:09;;;;;;;7.45;4.28;;;;;;;-142.75;100.00;78885.88;5011213;28;20033;-67
2022/04/30 05:12:35;;;;;;;6.03;4.03;;;;;;;-142.75;100.00;78891.78;5013422;28;20025;-68
2022/04/30 05:15:00;;;;;;;10.45;4.53;;;;;;;-142.75;100.00;78889.81;5019529;28;20056;-68
2022/04/30 05:17:25;;;;;;;15.33;4.30;;;;;;;-142.75;100.00;78889.81;5020863;28;20018;-67
2022/04/30 05:19:51;;;;;;;8.10;4.53;;;;;;;-142.75;100.00;78889.81;5010207;28;20283;-68
2022/04/30 05:22:16;;;;;;;6.97;3.80;;;;;;;-142.75;100.00;78883.91;5008371;28;20033;-68
2022/04/30 05:24:41;;;;;;;9.30;3.95;;;;;;;-142.75;100.00;78876.03;5028645;28;20044;-67
2022/04/30 05:27:08;;;;;;;7.72;3.88;;;;;;;-142.75;100.00;78874.06;5019766;28;20064;-67
2022/04/30 05:29:34;;;;;;;10.23;4.63;;;;;;;-142.75;100.00;78879.97;5028120;28;20037;-68
2022/04/30 05:31:59;;;;;;;7.05;4.22;;;;;;;-142.75;100.00;78881.94;5019798;28;20033;-68
2022/04/30 05:34:25;;;;;;;9.95;4.70;;;;;;;-142.75;100.00;78874.06;5009690;28;20025;-68
2022/04/30 05:36:50;;;;;;;6.70;4.60;;;;;;;-142.75;100.00;78864.22;5013754;28;20040;-67
2022/04/30 05:39:15;;;;;;;8.07;4.63;;;;;;;-142.75;100.00;78856.34;5009606;28;20018;-68
2022/04/30 05:41:41;;;;;;;10.70;4.23;;;;;;;-142.75;100.00;78846.50;5017829;28;20761;-68
2022/04/30 05:44:06;;;;;;;7.55;4.63;;;;;;;-142.75;100.00;78840.59;5020509;28;20025;-68
2022/04/30 05:46:31;;;;;;;5.80;4.00;;;;;;;-142.75;100.00;78830.75;5031152;28;20033;-68
2022/04/30 05:48:57;;;;;;;7.20;4.30;;;;;;;-142.75;100.00;78830.75;5029322;28;20033;-68
2022/04/30 05:51:22;;;;;;;7.43;4.57;;;;;;;-142.75;100.00;78822.88;5032061;28;20024;-67
2022/04/30 05:53:47;;;;;;;8.55;4.53;;;;;;;-142.75;100.00;78818.91;5016606;28;20546;-68
2022/04/30 05:56:13;;;;;;;10.23;4.10;;;;;;;-142.75;100.00;78811.03;5027124;28;20495;-68
2022/04/30 05:58:38;;;;;;;5.88;3.92;;;;;;;-142.75;100.00;78803.16;5017105;28;20079;-67
2022/04/30 06:01:04;;;;;;;4.93;3.78;;;;;;;-142.75;100.00;78799.22;5013052;28;20025;-68
2022/04/30 06:03:31;;;;;;;8.33;3.93;;;;;;;-142.75;100.00;78795.28;5029493;28;20041;-67
2022/04/30 06:05:57;;;;;;;6.47;3.83;;;;;;;-142.75;100.00;78795.28;5021434;28;20610;-67
2022/04/30 06:08:22;;;;;;;6.65;4.07;;;;;;;-142.75;100.00;78793.31;5020778;28;20108;-68
2022/04/30 06:10:47;;;;;;;6.45;3.88;;;;;;;-142.75;100.00;78793.31;5032222;28;20030;-67
2022/04/30 06:13:13;;;;;;;7.53;4.03;;;;;;;-142.75;100.00;78787.41;5016910;28;20022;-67
2022/04/30 06:15:38;;;;;;;9.13;4.60;;;;;;;-142.75;100.00;78793.31;5015765;28;20022;-67
2022/04/30 06:18:04;;;;;;;9.70;4.85;;;;;;;-142.75;100.00;78791.34;5014191;28;20060;-67
2022/04/30 06:20:30;;;;;;;8.25;4.90;;;;;;;-142.75;100.00;78783.47;5012969;28;20030;-68
2022/04/30 06:22:55;;;;;;;;;;;;;;;-142.75;100.00;78789.38;5015758;28;20478;-70
2022/04/30 06:25:20;;;;;;;11.97;5.07;;;;;;;-142.75;100.00;78785.44;5031920;28;20007;-68
2022/04/30 06:27:45;;;;;;;5.32;3.70;;;;;;;-142.75;100.00;78787.41;5031980;28;20021;-68
2022/04/30 06:30:11;;;;;;;8.88;4.65;;;;;;;-142.75;100.00;78785.44;5018352;28;20030;-70
2022/04/30 06:32:37;;;;;;;8.85;4.43;;;;;;;-142.75;100.00;78781.50;5008984;28;20033;-69
2022/04/30 06:35:02;;;;;;;8.02;4.35;;;;;;;-142.75;100.00;78775.59;5017554;28;20029;-67
2022/04/30 06:37:28;;;;;;;7.00;4.40;;;;;;;-142.75;100.00;78783.47;5029306;28;20079;-68
2022/04/30 06:39:53;;;;;;;6.82;4.28;;;;;;;-142.75;100.00;78775.59;5031365;28;20029;-68
2022/04/30 06:42:18;;;;;;;7.07;4.32;;;;;;;-142.75;100.00;78765.75;5031910;28;20445;-68
2022/04/30 06:44:44;;;;;;;8.35;4.60;;;;;;;-142.75;100.00;78755.91;5030770;28;20022;-67
2022/04/30 06:47:09;;;;;;;8.70;4.90;;;;;;;-142.75;100.00;78753.94;5029478;28;20102;-67
2022/04/30 06:49:35;;;;;;;7.13;3.88;;;;;;;-142.75;100.00;78751.97;5025611;28;20479;-68
2022/04/30 06:52:01;;;;;;;;;;;;;;;-142.75;100.00;78738.16;5010919;28;20403;-68
2022/04/30 06:57:16;;;;;;;9.07;4.60;;;;;;;-142.75;100.00;78728.31;5010398;28;20040;-67
2022/04/30 06:59:42;;;;;;;7.97;4.10;;;;;;;-142.75;100.00;78720.44;5007504;28;20025;-69
2022/04/30 07:02:18;;;;;;;10.20;4.40;;;;;;;-142.75;100.00;78724.38;5012751;28;20508;-67
2022/04/30 07:04:46;;;;;;;11.25;4.18;;;;;;;-142.75;100.00;78716.50;5024338;28;20029;-70
2022/04/30 07:07:12;;;;;;;10.93;4.77;;;;;;;-142.75;100.00;78706.66;5015253;28;20438;-68
2022/04/30 07:09:38;;;;;;;6.15;3.60;;;;;;;-142.75;100.00;78706.66;5024942;28;20033;-67
2022/04/30 07:12:06;;;;;;;;;;;;;;;-142.75;100.00;78706.66;5011188;28;20499;-68
2022/04/30 07:14:36;;;;;;;7.70;3.60;;;;;;;-142.75;100.00;78694.84;5019814;28;20170;-67
2022/04/30 07:17:09;;;;;;;12.57;3.97;;;;;;;-142.75;100.00;78690.91;5010013;28;20030;-66
2022/04/30 07:19:35;;;;;;;7.18;3.78;;;;;;;-142.75;100.00;78692.88;5008406;28;20040;-68
2022/04/30 07:22:01;;;;;;;9.30;4.18;;;;;;;-142.75;100.00;78694.84;5009535;28;20030;-67
2022/04/30 07:24:27;;;;;;;7.65;3.58;;;;;;;-142.75;100.00;78688.94;5020163;28;20044;-67
2022/04/30 07:26:53;;;;;;;7.05;3.63;;;;;;;-142.75;100.00;78690.91;5028194;28;20645;-67
2022/04/30 07:29:19;;;;;;;7.75;4.18;;;;;;;-142.75;100.00;78692.88;5029603;28;20060;-67
2022/04/30 07:31:44;;;;;;;10.15;4.18;;;;;;;-142.75;100.00;78675.16;5028828;28;20076;-67
2022/04/30 07:34:10;;;;;;;9.60;4.70;;;;;;;-142.75;100.00;78675.16;5029281;28;20092;-68
2022/04/30 07:36:38;;;;;;;8.13;4.65;;;;;;;-142.75;100.00;78653.47;5026677;28;20059;-68
2022/04/30 07:39:05;;;;;;;7.95;4.20;;;;;;;-142.75;100.00;78633.78;5027234;28;20435;-70
2022/04/30 07:41:30;;;;;;;11.15;4.00;;;;;;;-142.75;100.00;78618.03;5014642;28;20492;-69
2022/04/30 07:43:56;;;;;;;11.50;4.03;;;;;;;-142.75;100.00;78590.47;5008391;28;20094;-69
2022/04/30 07:46:24;;;;;;;7.10;3.67;;;;;;;-142.75;100.00;78574.69;5011230;28;20109;-68
2022/04/30 07:48:50;;;;;;;6.60;3.55;;;;;;;-142.75;100.00;78547.13;5028384;28;20032;-69
2022/04/30 07:51:23;;;;;;;9.25;3.83;;;;;;;-142.75;100.00;78519.56;5017236;28;20450;-67
2022/04/30 07:53:49;;;;;;;7.97;3.80;;;;;;;-142.75;100.00;78499.88;5008439;28;20068;-67
2022/04/30 07:56:15;;;;;;;7.70;3.33;;;;;;;-142.75;100.00;78486.06;5008214;28;20442;-68
2022/04/30 07:58:41;;;;;;;8.18;3.83;;;;;;;-142.75;100.00;78476.22;5009080;28;20435;-68
2022/04/30 08:01:06;;;;;;;9.02;3.30;;;;;;;-142.75;100.00;78466.38;5009934;28;20121;-68
2022/04/30 08:03:33;;;;;;;8.05;3.72;;;;;;;-142.75;100.00;78456.53;5028987;28;21645;-67
2022/04/30 08:05:58;;;;;;;;;;;;;;;-142.75;100.00;78362.00;5008003;28;20542;-67
2022/04/30 08:08:23;;;;;;;6.60;3.45;;;;;;;-142.75;100.00;78295.06;5012444;28;19917;-68
2022/04/30 08:10:49;;;;;;;7.28;3.38;;;;;;;-142.75;100.00;78232.03;5027073;28;20505;-67
2022/04/30 08:13:14;;;;;;;7.70;3.75;;;;;;;-142.75;100.00;78176.88;5016764;28;20036;-67
2022/04/30 08:15:43;;;;;;;8.13;3.72;;;;;;;-142.75;100.00;78147.34;5007550;28;20036;-67
2022/04/30 08:18:10;;;;;;;6.28;3.08;;;;;;;-142.75;100.00;78084.34;5007555;28;20030;-67
2022/04/30 08:20:37;;;;;;;6.70;3.00;;;;;;;-142.75;100.00;78042.97;5006121;28;20038;-67
2022/04/30 08:23:04;;;;;;;6.45;2.78;;;;;;;-142.75;100.00;78080.41;5007674;28;20491;-68
2022/04/30 08:25:29;;;;;;;5.30;2.80;;;;;;;-142.75;100.00;78117.81;4991698;28;20037;-68
2022/04/30 08:27:54;;;;;;;5.43;2.65;;;;;;;-142.75;100.00;78123.72;5009978;28;20479;-67
2022/04/30 08:30:20;;;;;;;4.70;2.75;;;;;;;-142.75;100.00;78161.13;5008580;28;20380;-66
2022/04/30 08:32:47;;;;;;;;;;;;;;;-142.75;100.00;78237.94;5007532;28;20034;-68
2022/04/30 08:35:12;;;;;;;7.75;2.80;;;;;;;-142.75;100.00;78283.22;5008782;28;19921;-67
2022/04/30 08:37:37;;;;;;;5.72;2.30;;;;;;;-142.75;100.00;78287.16;5011915;28;20048;-68
2022/04/30 08:40:03;;;;;;;7.18;2.55;;;;;;;-142.75;100.00;78259.59;5008176;28;20034;-68
2022/04/30 08:42:30;;;;;;;4.95;2.42;;;;;;;-142.75;100.00;78176.88;5014780;28;20075;-68
2022/04/30 08:44:56;;;;;;;;;;;;;;;-142.75;100.00;78092.22;5021332;28;20049;-67
2022/04/30 08:47:21;;;;;;;5.80;2.95;;;;;;;-142.75;100.00;78015.41;5030431;28;19948;-68
2022/04/30 08:49:47;;;;;;;;;;;;;;;-142.75;100.00;77974.06;5015326;28;20036;-68
2022/04/30 08:52:15;;;;;;;7.65;2.50;;;;;;;-142.75;100.00;78011.47;5018166;28;19970;-68
2022/04/30 08:54:40;;;;;;;4.63;2.03;;;;;;;-142.75;100.00;78039.03;5017289;28;20057;-67
2022/04/30 08:57:06;;;;;;;4.18;2.00;;;;;;;-142.75;100.00;78100.09;5010367;28;20491;-68
2022/04/30 08:59:31;;;;;;;;;;;;;;;-142.75;100.00;78129.63;5013307;28;20052;-68
2022/04/30 09:01:58;;;;;;;4.45;2.10;;;;;;;-142.75;100.00;78161.13;5013101;28;19917;-67
2022/04/30 09:04:25;;;;;;;4.47;1.98;;;;;;;-142.75;100.00;78194.63;5009358;28;20089;-68
2022/04/30 09:06:53;;;;;;;5.05;2.10;;;;;;;-142.75;100.00;78239.91;5018703;28;20037;-68
2022/04/30 09:09:23;;;;;;;4.55;2.20;;;;;;;-142.75;100.00;78285.19;5015891;28;20026;-69
2022/04/30 09:11:50;;;;;;;7.63;2.03;;;;;;;-142.75;100.00;78295.06;5015583;28;20034;-68
2022/04/30 09:14:22;;;;;;;;;;;;;;;-142.75;100.00;78271.41;5017618;28;20025;-68
2022/04/30 09:16:48;;;;;;;2.75;1.90;;;;;;;-142.75;100.00;78153.25;5013229;28;20503;-68
2022/04/30 09:19:13;;;;;;;5.47;2.30;;;;;;;-142.75;100.00;78046.91;5021255;28;20037;-68
2022/04/30 09:21:48;;;;;;;4.28;2.30;;;;;;;-142.75;100.00;77954.38;5017935;28;20022;-67
2022/04/30 09:24:14;;;;;;;7.97;2.40;;;;;;;-142.75;100.00;77934.69;5025270;28;20610;-68
2022/04/30 09:26:43;;;;;;;4.88;2.10;;;;;;;-142.75;100.00;77974.06;5020563;28;20029;-67
2022/04/30 09:29:24;;;;;;;3.17;1.80;;;;;;;-142.75;100.00;78046.91;5029653;28;20041;-70
2022/04/30 09:37:41;;;;;;;10.50;2.10;;;;;;;-142.75;100.00;78202.50;5055744;22;20061;-67
2022/04/30 09:40:00;;;;;;;5.45;2.60;;;;;;;-142.75;100.00;78291.09;5033999;28;20072;-67
2022/04/30 09:42:25;;;;;;;3.88;2.20;;;;;;;-142.75;100.00;78318.69;5033388;28;20025;-67
2022/04/30 09:44:51;;;;;;;5.35;2.55;;;;;;;-142.75;100.00;78348.22;5033607;28;20030;-67
2022/04/30 09:47:16;;;;;;;7.00;2.45;;;;;;;-142.75;100.00;78367.91;5033828;28;20035;-67
2022/04/30 09:55:10;;;;;;;6.95;2.50;;;;;;;-142.75;100.00;78291.09;5033299;28;20095;-67
2022/04/30 09:57:36;;;;;;;3.80;2.05;;;;;;;-142.75;100.00;78291.09;5033559;28;20034;-67
2022/04/30 10:00:03;;;;;;;;;;;;;;;-142.75;100.00;78263.53;5034075;28;20104;-67
2022/04/30 10:02:31;;;;;;;6.68;2.00;;;;;;;-142.75;100.00;78251.72;5032887;28;19967;-67
2022/04/30 10:04:57;;;;;;;3.05;1.60;;;;;;;-142.75;100.00;78224.16;5034105;28;20816;-67
2022/04/30 10:07:26;;;;;;;2.47;1.75;;;;;;;-142.75;100.00;78208.41;5035037;28;20034;-67
2022/04/30 10:10:01;;;;;;;3.55;1.35;;;;;;;-142.75;100.00;78251.72;5034218;28;20029;-67
2022/04/30 10:12:34;;;;;;;3.17;1.35;;;;;;;-142.75;100.00;78228.09;5033844;28;20052;-67
2022/04/30 10:15:00;;;;;;;2.15;1.20;;;;;;;-142.75;100.00;78241.88;5034213;28;20450;-67
2022/04/30 10:17:27;;;;;;;2.80;1.40;;;;;;;-142.75;100.00;78267.47;5034110;28;20053;-67
2022/04/30 10:20:00;;;;;;;5.80;1.92;;;;;;;-142.75;100.00;78271.41;5033951;28;20025;-67
2022/04/30 10:22:26;;;;;;;4.05;1.70;;;;;;;-142.75;100.00;78269.44;5033283;28;20112;-67
2022/04/30 10:24:54;;;;;;;;;;;;;;;-142.75;100.00;78259.59;5035058;28;20030;-67
2022/04/30 10:27:19;;;;;;;4.35;1.45;;;;;;;-142.75;100.00;78228.09;5034799;28;19948;-67
2022/04/30 10:29:58;;;;;;;3.63;2.10;;;;;;;-142.75;100.00;78107.97;5032712;28;20080;-67
2022/04/30 10:32:25;;;;;;;5.07;2.03;;;;;;;-142.75;100.00;78078.44;5031868;28;20037;-67
2022/04/30 10:34:54;;;;;;;7.68;1.83;;;;;;;-142.75;100.00;78082.38;5033145;28;20029;-68
2022/04/30 10:37:36;;;;;;;8.95;1.90;;;;;;;-142.75;100.00;78054.81;5033368;28;20083;-67
2022/04/30 10:40:08;;;;;;;5.95;1.58;;;;;;;-142.75;100.00;78037.06;5016458;28;20025;-67
2022/04/30 10:42:42;;;;;;;6.25;1.60;;;;;;;-142.75;100.00;78033.13;5030155;28;20026;-68
2022/04/30 10:45:15;;;;;;;7.13;2.15;;;;;;;-142.75;100.00;78068.59;5033317;28;20022;-68
2022/04/30 10:47:59;;;;;;;9.40;1.70;;;;;;;-142.75;100.00;78100.09;5033288;28;20075;-67
2022/04/30 10:50:25;;;;;;;7.93;2.00;;;;;;;-142.75;100.00;78129.63;5032086;28;20163;-68
2022/04/30 10:52:54;;;;;;;4.00;1.95;;;;;;;-142.75;100.00;78107.97;5033227;28;20025;-67
2022/04/30 10:55:20;;;;;;;4.68;1.95;;;;;;;-142.75;100.00;78129.63;5032866;28;20043;-67
2022/04/30 10:57:47;;;;;;;5.65;1.98;;;;;;;-142.75;100.00;78143.41;5033096;28;20033;-67
2022/04/30 11:00:13;;;;;;;5.80;1.70;;;;;;;-142.75;100.00;78133.56;5032264;28;20025;-68
2022/04/30 11:02:39;;;;;;;4.68;1.90;;;;;;;-142.75;100.00;78145.38;5032059;28;20111;-67
2022/04/30 11:05:16;;;;;;;3.80;1.77;;;;;;;-142.75;100.00;78141.44;5032913;28;20028;-67
2022/04/30 11:07:41;;;;;;;5.50;1.90;;;;;;;-142.75;100.00;78147.34;5032121;28;20048;-67
2022/04/30 11:10:07;;;;;;;6.60;2.15;;;;;;;-142.75;100.00;78129.63;5032099;28;20079;-67
2022/04/30 11:12:33;;;;;;;5.18;1.95;;;;;;;-142.75;100.00;78127.66;5031679;28;20091;-67
2022/04/30 11:14:58;;;;;;;;;;;;;;;-142.75;100.00;78157.19;5032479;28;20021;-67
2022/04/30 11:17:25;;;;;;;5.18;1.63;;;;;;;-142.75;100.00;78159.16;5031910;28;19944;-67
2022/04/30 11:19:51;;;;;;;3.20;1.52;;;;;;;-142.75;100.00;78178.84;5032014;28;20048;-67
2022/04/30 11:22:17;;;;;;;;;;;;;;;-142.75;100.00;78178.84;5031925;28;20490;-67
2022/04/30 11:24:43;;;;;;;3.43;1.70;;;;;;;-142.75;100.00;78206.44;5031820;28;19952;-67
2022/04/30 11:27:09;;;;;;;6.35;2.05;;;;;;;-142.75;100.00;78239.91;5031868;28;20314;-67
2022/04/30 11:29:47;;;;;;;;;;;;;;;-142.75;100.00;78243.84;5032122;28;20440;-67
2022/04/30 11:32:19;;;;;;;3.10;1.73;;;;;;;-142.75;100.00;78271.41;5031363;28;19939;-67
2022/04/30 11:34:44;;;;;;;2.47;1.30;;;;;;;-142.75;100.00;78283.22;5032255;28;20406;-67
2022/04/30 11:37:10;;;;;;;5.00;1.70;;;;;;;-142.75;100.00;78293.06;5032742;28;20033;-67
2022/04/30 11:39:35;;;;;;;7.20;1.60;;;;;;;-142.75;100.00;78302.94;5031745;28;20021;-67
2022/04/30 11:42:00;;;;;;;3.13;1.55;;;;;;;-142.75;100.00;78289.13;5031484;28;20544;-66
2022/04/30 11:44:27;;;;;;;3.00;1.52;;;;;;;-142.75;100.00;78279.28;5030780;28;20028;-67
2022/04/30 11:46:54;;;;;;;3.03;1.30;;;;;;;-142.75;100.00;78271.41;5031601;28;20029;-66